Atlantic - Newfoundland: Past 24 Hour Conditions

 

St. John's Int'l Airport

03:30 AM NDT 21 April 2014
This table is a summary of hourly weather conditions for the past 24 hours.
Date / Time
(NDT)
Wind(knots) Conditions Visibility(km) Pressure(kPa) Air tempC) Relative humidity(%) Dew pointC) Wind Chill
21 April 2014
3:30 WNW 15 Clear 24 101.7 -3 76 -7 -10
2:30 WNW 12 Clear 24 101.7 -3 76 -7 -10
1:30 W 15 gust 20 Clear 24 101.7 -4 75 -7 -11
0:30 WNW 15 Clear 24 101.7 -4 74 -8 -11
20 April 2014
23:30 WNW 14 Clear 24 101.7 -4 72 -8 -11
22:30 WNW 9 Clear 24 101.8 -4 71 -8 -10
21:30 NNW 8 Clear 24 101.8 -4 79 -7 -10
20:30 N 10 Clear 24 101.7 -3 79 -7 -9
19:30 N 10 gust 21 Mainly Sunny 24 101.6 -3 76 -6 -8
18:30 N 16 Mainly Sunny 24 101.5 -1 71 -6 -8
17:30 NW 19 gust 25 Mainly Sunny 24 101.4 0 65 -5 *
16:30 NNW 13 gust 20 Mainly Sunny 24 101.3 1 70 -4 *
15:30 NNW 18 gust 32 Mainly Sunny 24 101.3 1 70 -4 *
14:30 NW 21 gust 31 Mainly Sunny 24 101.2 0 71 -5 -7
13:30 NW 24 gust 31 Mainly Sunny 24 101.2 -1 72 -5 -9
12:30 NW 22 gust 28 Mostly Cloudy 24 101.2 -2 76 -5 -9
11:30 NW 26 gust 33 Partly Cloudy 24 101.2 -2 76 -6 -11
10:30 NW 28 gust 36 Partly Cloudy 24 101.1 -2 79 -5 -11
9:30 NNW 19 gust 30 Light Snow 24 101.0 -3 90 -4 -11
8:30 NNW 20 gust 32 Light Snow 8 100.9 -2 92 -4 -10
7:30 NW 20 gust 27 Light Snow 8 100.8 -3 93 -4 -11
6:30 NNW 23 gust 28 Cloudy 13 100.7 -3 90 -5 -12
5:30 NNW 19 gust 32 Light Snow 10 100.6 -3 92 -4 -11
4:30 NW 20 Light Snow 5 100.6 -3 93 -4 -11
3:30 NNW 19 gust 28 Light Snow 2 100.5 -3 93 -4 -11
 
Map of Atlantic - Newfoundland marine weather areas Southwestern Grand Banks - 44138 Banquereau - 44139 Tail of the Bank - 44140 Nickerson Bank - 44251 Northeast Burgeo Bank - 44255 Blanc-Sablon Airport Cap Whittle Chevery Natashquan Airport Heath Point Miscou Island Grand Étang Ingonish Beach North Mountain St.Paul Island J.A. Douglas McCurdy Sydney Airport Charlottetown Airport East Point North Cape Argentia Bonavista Burgeo Cape Race Corner Brook Daniel's Harbour Englee Ferolle Point La Scie Port aux Basques Rocky Harbour Sagona Island St. Anthony Airport St. John's Int'l Airport St. Lawrence Stephenville Airport Twillingate Winterland Wreckhouse Cartwright Airport Mary's Harbour Grates Cove Pool's Island Marticot Island Long Pond Îles de la Madeleine Airport
Legend: buoyBuoy land stationLand Station